Saturday, July 23, 2016, 3:10 PM EDT

KMUI, Muir Army Air Field / Indiantown

Location: Jonestown, PA, United States Lat: 40.433
Local Time: 3:10 PM EDT (19:10 GMT) Lon: -76.567
Time Zone: US/Eastern Elev: 488 ft

Show me the last for .
Show Decoded

2016-07-23 14:58 METAR KMUI 231858Z AUTO 32010G20KT 10SM CLR 36/17 A2988 RMK AO2 SLP116 T03580170
                 =
2016-07-23 13:58 METAR KMUI 231758Z AUTO 26010KT 190V310 10SM FEW065 35/18 A2989 RMK AO2 SLP119
                 60000 T03470178 10347 20251 57017 =
2016-07-23 12:58 METAR KMUI 231658Z AUTO 26010G15KT 10SM CLR 34/19 A2990 RMK AO2 SLP123 T03390188
                 =
2016-07-23 11:58 METAR KMUI 231558Z AUTO VRB05KT 10SM CLR 33/19 A2992 RMK AO2 SLP129 T03270187 =
2016-07-23 10:58 METAR KMUI 231458Z AUTO 29007KT 10SM CLR 32/18 A2994 RMK AO2 SLP136 60000
                 T03150178 50003 =
2016-07-23 09:58 METAR KMUI 231358Z AUTO VRB05KT 10SM CLR 31/20 A2993 RMK AO2 SLP133 T03050197 =
2016-07-23 08:58 METAR KMUI 231258Z AUTO VRB01KT 10SM CLR 29/21 A2993 RMK AO2 RAB1158E15 SLP133
                 P0000 T02890210 =
2016-07-23 07:58 METAR KMUI 231158Z AUTO 11002KT 10SM CLR 25/21 A2993 RMK AO2 RAB52 SLP134 P0000
                 60000 T02510208 10251 20208 51008 =
2016-07-23 06:58 METAR KMUI 231058Z AUTO 00000KT 10SM CLR 22/21 A2993 RMK AO2 SLP134 T02200206 =
2016-07-23 05:58 METAR KMUI 230958Z AUTO 22006KT 10SM CLR 23/21 A2991 RMK AO2 SLP126 T02340207 =
2016-07-23 04:58 METAR KMUI 230858Z AUTO 00000KT 10SM CLR 21/21 A2990 RMK AO2 SLP123 T02110205
                 53000 =
2016-07-23 03:58 METAR KMUI 230758Z AUTO 03001KT 10SM CLR 21/20 A2991 RMK AO2 SLP127 T02140202 =
2016-07-23 02:58 METAR KMUI 230658Z AUTO 23003KT 10SM CLR 24/20 A2990 RMK AO2 SLP123 T02440199 =
2016-07-23 01:58 METAR KMUI 230558Z AUTO 21003KT 10SM CLR 25/19 A2990 RMK AO2 SLP123 T02470193
                 10304 20233 50006 =
2016-07-23 00:58 METAR KMUI 230458Z AUTO 16004KT 10SM CLR 25/20 A2991 RMK AO2 SLP126 T02480199
                 403400169 =
2016-07-22 23:58 METAR KMUI 230358Z AUTO 24004KT 10SM CLR 28/20 A2990 RMK AO2 SLP123 T02790195 =
2016-07-22 22:58 METAR KMUI 230258Z AUTO 26005KT 10SM CLR 29/19 A2989 RMK AO2 SLP119 T02860192
                 52010 =
2016-07-22 21:58 METAR KMUI 230158Z AUTO 27004KT 10SM CLR 30/19 A2988 RMK AO2 SLP116 T02990186 =
2016-07-22 20:58 METAR KMUI 230058Z AUTO 21004KT 10SM CLR 29/19 A2986 RMK AO2 SLP110 T02900188 =
2016-07-22 19:58 METAR KMUI 222358Z AUTO VRB02KT 10SM CLR 31/19 A2986 RMK AO2 SLP110 T03050192
                 10340 20305 55010 =
2016-07-22 18:58 METAR KMUI 222258Z AUTO 23010KT 10SM CLR 33/18 A2985 RMK AO2 SLP107 T03290179 =
2016-07-22 17:58 METAR KMUI 222158Z AUTO 24012G16KT 10SM CLR 34/18 A2987 RMK AO2 SLP114 T03350176
                 =
2016-07-22 16:58 METAR KMUI 222058Z AUTO 26009KT 10SM CLR 34/18 A2989 RMK AO2 SLP121 T03380176
                 57017 =
2016-07-22 15:58 METAR KMUI 221958Z AUTO 27012KT 10SM FEW200 33/17 A2991 RMK AO2 SLP128 T03280172
                 =
2016-07-22 15:51 METAR KMUI 221951Z AUTO 28012G19KT 10SM FEW210 33/17 A2991 RMK AO2 WSHFT 40 =

Support USWX by starting your Amazon purchase here.